sensor_id;sensor_type;location;lat;lon;timestamp;temperature;humidity
37560;DHT22;23398;50.928;7.084;2023-06-22T00:00:45;24.10;74.20
37560;DHT22;23398;50.928;7.084;2023-06-22T00:03:10;24.00;73.60
37560;DHT22;23398;50.928;7.084;2023-06-22T00:05:36;24.10;71.80
37560;DHT22;23398;50.928;7.084;2023-06-22T00:08:04;24.10;70.80
37560;DHT22;23398;50.928;7.084;2023-06-22T00:10:30;24.10;70.80
37560;DHT22;23398;50.928;7.084;2023-06-22T00:12:56;24.20;70.70
37560;DHT22;23398;50.928;7.084;2023-06-22T00:15:22;24.10;70.50
37560;DHT22;23398;50.928;7.084;2023-06-22T00:17:48;24.20;70.40
37560;DHT22;23398;50.928;7.084;2023-06-22T00:20:14;24.20;70.00
37560;DHT22;23398;50.928;7.084;2023-06-22T00:22:39;24.30;69.70
37560;DHT22;23398;50.928;7.084;2023-06-22T00:25:06;24.40;70.30
37560;DHT22;23398;50.928;7.084;2023-06-22T00:27:32;24.30;69.00
37560;DHT22;23398;50.928;7.084;2023-06-22T00:29:58;24.30;68.90
37560;DHT22;23398;50.928;7.084;2023-06-22T00:32:23;24.40;68.80
37560;DHT22;23398;50.928;7.084;2023-06-22T00:34:49;24.40;68.70
37560;DHT22;23398;50.928;7.084;2023-06-22T00:37:15;24.40;68.50
37560;DHT22;23398;50.928;7.084;2023-06-22T00:39:44;24.40;68.40
37560;DHT22;23398;50.928;7.084;2023-06-22T00:42:10;24.50;68.00
37560;DHT22;23398;50.928;7.084;2023-06-22T00:44:36;24.50;67.80
37560;DHT22;23398;50.928;7.084;2023-06-22T00:47:02;24.50;67.70
37560;DHT22;23398;50.928;7.084;2023-06-22T00:49:28;24.50;68.50
37560;DHT22;23398;50.928;7.084;2023-06-22T00:51:54;24.60;68.60
37560;DHT22;23398;50.928;7.084;2023-06-22T00:54:20;24.60;68.50
37560;DHT22;23398;50.928;7.084;2023-06-22T00:56:55;24.60;70.00
37560;DHT22;23398;50.928;7.084;2023-06-22T00:59:23;24.60;70.30
37560;DHT22;23398;50.928;7.084;2023-06-22T01:01:49;24.60;70.70
37560;DHT22;23398;50.928;7.084;2023-06-22T01:04:15;24.60;70.50
37560;DHT22;23398;50.928;7.084;2023-06-22T01:07:01;24.60;70.70
37560;DHT22;23398;50.928;7.084;2023-06-22T01:09:34;24.60;71.20
37560;DHT22;23398;50.928;7.084;2023-06-22T01:12:04;24.60;70.70
37560;DHT22;23398;50.928;7.084;2023-06-22T01:14:43;24.60;70.30
37560;DHT22;23398;50.928;7.084;2023-06-22T01:17:13;24.50;70.90
37560;DHT22;23398;50.928;7.084;2023-06-22T01:19:54;24.60;69.90
37560;DHT22;23398;50.928;7.084;2023-06-22T01:22:29;24.50;69.80
37560;DHT22;23398;50.928;7.084;2023-06-22T01:25:03;24.50;70.90
37560;DHT22;23398;50.928;7.084;2023-06-22T01:30:11;24.50;71.40
37560;DHT22;23398;50.928;7.084;2023-06-22T01:32:38;24.40;71.60
37560;DHT22;23398;50.928;7.084;2023-06-22T01:35:06;24.50;71.80
37560;DHT22;23398;50.928;7.084;2023-06-22T01:37:33;24.40;72.50
37560;DHT22;23398;50.928;7.084;2023-06-22T01:40:00;24.40;72.50
37560;DHT22;23398;50.928;7.084;2023-06-22T01:42:26;24.50;72.30
37560;DHT22;23398;50.928;7.084;2023-06-22T01:44:53;24.40;71.10
37560;DHT22;23398;50.928;7.084;2023-06-22T01:47:20;24.50;71.50
37560;DHT22;23398;50.928;7.084;2023-06-22T01:49:46;24.30;71.40
37560;DHT22;23398;50.928;7.084;2023-06-22T01:52:11;24.30;71.70
37560;DHT22;23398;50.928;7.084;2023-06-22T01:54:39;24.30;72.40
37560;DHT22;23398;50.928;7.084;2023-06-22T01:57:05;24.40;72.70
37560;DHT22;23398;50.928;7.084;2023-06-22T02:00:07;24.30;72.40
37560;DHT22;23398;50.928;7.084;2023-06-22T02:03:00;24.20;71.90
37560;DHT22;23398;50.928;7.084;2023-06-22T02:05:31;24.20;71.50
37560;DHT22;23398;50.928;7.084;2023-06-22T02:08:15;24.20;71.60
37560;DHT22;23398;50.928;7.084;2023-06-22T02:10:44;24.20;71.90
37560;DHT22;23398;50.928;7.084;2023-06-22T02:13:11;24.10;71.60
37560;DHT22;23398;50.928;7.084;2023-06-22T02:15:37;24.10;71.40
37560;DHT22;23398;50.928;7.084;2023-06-22T02:18:03;24.00;71.40
37560;DHT22;23398;50.928;7.084;2023-06-22T02:20:29;24.10;72.20
37560;DHT22;23398;50.928;7.084;2023-06-22T02:22:55;24.00;72.40
37560;DHT22;23398;50.928;7.084;2023-06-22T02:25:20;24.00;72.30
37560;DHT22;23398;50.928;7.084;2023-06-22T02:27:46;24.00;71.50
37560;DHT22;23398;50.928;7.084;2023-06-22T02:30:12;24.00;72.30
37560;DHT22;23398;50.928;7.084;2023-06-22T02:32:40;24.00;72.90
37560;DHT22;23398;50.928;7.084;2023-06-22T02:35:11;24.00;73.80
37560;DHT22;23398;50.928;7.084;2023-06-22T02:37:37;24.00;74.20
37560;DHT22;23398;50.928;7.084;2023-06-22T02:40:09;24.00;75.10
37560;DHT22;23398;50.928;7.084;2023-06-22T02:42:39;24.00;75.50
37560;DHT22;23398;50.928;7.084;2023-06-22T02:45:05;24.00;75.30
37560;DHT22;23398;50.928;7.084;2023-06-22T02:47:30;24.00;75.60
37560;DHT22;23398;50.928;7.084;2023-06-22T02:49:56;23.90;76.00
37560;DHT22;23398;50.928;7.084;2023-06-22T02:52:22;24.10;76.40
37560;DHT22;23398;50.928;7.084;2023-06-22T02:54:47;23.90;76.70
37560;DHT22;23398;50.928;7.084;2023-06-22T02:57:13;23.90;76.60
37560;DHT22;23398;50.928;7.084;2023-06-22T02:59:42;23.90;76.00
37560;DHT22;23398;50.928;7.084;2023-06-22T03:02:08;23.80;76.10
37560;DHT22;23398;50.928;7.084;2023-06-22T03:04:37;23.90;76.20
37560;DHT22;23398;50.928;7.084;2023-06-22T03:07:03;23.80;76.10
37560;DHT22;23398;50.928;7.084;2023-06-22T03:09:29;23.80;76.00
37560;DHT22;23398;50.928;7.084;2023-06-22T03:11:55;23.80;75.70
37560;DHT22;23398;50.928;7.084;2023-06-22T03:14:20;23.80;76.50
37560;DHT22;23398;50.928;7.084;2023-06-22T03:16:46;23.80;76.50
37560;DHT22;23398;50.928;7.084;2023-06-22T03:19:12;23.70;77.20
37560;DHT22;23398;50.928;7.084;2023-06-22T03:21:38;23.70;77.20
37560;DHT22;23398;50.928;7.084;2023-06-22T03:24:05;23.70;77.30
37560;DHT22;23398;50.928;7.084;2023-06-22T03:26:30;23.80;77.50
37560;DHT22;23398;50.928;7.084;2023-06-22T03:28:56;23.80;78.90
37560;DHT22;23398;50.928;7.084;2023-06-22T03:31:22;23.70;78.10
37560;DHT22;23398;50.928;7.084;2023-06-22T03:33:48;23.80;78.20
37560;DHT22;23398;50.928;7.084;2023-06-22T03:36:15;23.70;76.80
37560;DHT22;23398;50.928;7.084;2023-06-22T03:38:45;23.80;78.00
37560;DHT22;23398;50.928;7.084;2023-06-22T03:41:11;23.70;79.00
37560;DHT22;23398;50.928;7.084;2023-06-22T03:43:36;23.70;80.00
37560;DHT22;23398;50.928;7.084;2023-06-22T03:46:02;23.70;80.50
37560;DHT22;23398;50.928;7.084;2023-06-22T03:48:27;23.90;81.30
37560;DHT22;23398;50.928;7.084;2023-06-22T03:50:53;23.80;80.90
37560;DHT22;23398;50.928;7.084;2023-06-22T03:53:19;23.80;80.20
37560;DHT22;23398;50.928;7.084;2023-06-22T03:55:48;23.80;78.30
37560;DHT22;23398;50.928;7.084;2023-06-22T03:58:15;23.80;79.50
37560;DHT22;23398;50.928;7.084;2023-06-22T04:00:41;23.90;79.40
37560;DHT22;23398;50.928;7.084;2023-06-22T04:03:07;23.80;79.60
37560;DHT22;23398;50.928;7.084;2023-06-22T04:05:33;23.90;79.80
37560;DHT22;23398;50.928;7.084;2023-06-22T04:07:58;23.90;79.40
37560;DHT22;23398;50.928;7.084;2023-06-22T04:10:24;23.90;78.50
37560;DHT22;23398;50.928;7.084;2023-06-22T04:12:49;23.90;78.20
37560;DHT22;23398;50.928;7.084;2023-06-22T04:15:15;23.90;78.10
37560;DHT22;23398;50.928;7.084;2023-06-22T04:17:40;23.90;77.10
37560;DHT22;23398;50.928;7.084;2023-06-22T04:20:07;23.90;76.60
37560;DHT22;23398;50.928;7.084;2023-06-22T04:22:33;24.00;76.40
37560;DHT22;23398;50.928;7.084;2023-06-22T04:24:58;24.00;76.30
37560;DHT22;23398;50.928;7.084;2023-06-22T04:27:24;24.10;75.80
37560;DHT22;23398;50.928;7.084;2023-06-22T04:29:49;24.20;75.30
37560;DHT22;23398;50.928;7.084;2023-06-22T04:32:16;24.30;75.20
37560;DHT22;23398;50.928;7.084;2023-06-22T04:34:43;24.30;75.30
37560;DHT22;23398;50.928;7.084;2023-06-22T04:37:08;24.40;75.00
37560;DHT22;23398;50.928;7.084;2023-06-22T04:39:34;24.50;74.60
37560;DHT22;23398;50.928;7.084;2023-06-22T04:42:00;24.50;75.00
37560;DHT22;23398;50.928;7.084;2023-06-22T04:44:26;24.60;75.80
37560;DHT22;23398;50.928;7.084;2023-06-22T04:46:57;24.70;76.00
37560;DHT22;23398;50.928;7.084;2023-06-22T04:49:27;24.70;76.30
37560;DHT22;23398;50.928;7.084;2023-06-22T04:52:01;24.70;77.60
37560;DHT22;23398;50.928;7.084;2023-06-22T04:54:27;24.70;77.50
37560;DHT22;23398;50.928;7.084;2023-06-22T04:56:53;24.80;77.90
37560;DHT22;23398;50.928;7.084;2023-06-22T04:59:22;24.80;77.90
37560;DHT22;23398;50.928;7.084;2023-06-22T05:01:56;24.80;77.00
37560;DHT22;23398;50.928;7.084;2023-06-22T05:04:22;24.80;77.90
37560;DHT22;23398;50.928;7.084;2023-06-22T05:06:51;24.90;78.60
37560;DHT22;23398;50.928;7.084;2023-06-22T05:09:17;24.80;78.10
37560;DHT22;23398;50.928;7.084;2023-06-22T05:11:44;24.80;78.20
37560;DHT22;23398;50.928;7.084;2023-06-22T05:14:10;24.90;78.70
37560;DHT22;23398;50.928;7.084;2023-06-22T05:16:36;24.90;79.10
37560;DHT22;23398;50.928;7.084;2023-06-22T05:19:02;24.90;78.80
37560;DHT22;23398;50.928;7.084;2023-06-22T05:21:29;24.90;79.30
37560;DHT22;23398;50.928;7.084;2023-06-22T05:23:55;24.90;78.50
37560;DHT22;23398;50.928;7.084;2023-06-22T05:26:28;24.90;78.90
37560;DHT22;23398;50.928;7.084;2023-06-22T05:28:54;25.00;78.80
37560;DHT22;23398;50.928;7.084;2023-06-22T05:31:20;25.10;78.90
37560;DHT22;23398;50.928;7.084;2023-06-22T05:33:47;25.10;79.40
37560;DHT22;23398;50.928;7.084;2023-06-22T05:36:13;25.20;80.00
37560;DHT22;23398;50.928;7.084;2023-06-22T05:38:39;25.30;79.90
37560;DHT22;23398;50.928;7.084;2023-06-22T05:41:05;25.40;79.70
37560;DHT22;23398;50.928;7.084;2023-06-22T05:43:31;25.50;79.70
37560;DHT22;23398;50.928;7.084;2023-06-22T05:45:57;25.80;79.30
37560;DHT22;23398;50.928;7.084;2023-06-22T05:48:22;25.90;78.60
37560;DHT22;23398;50.928;7.084;2023-06-22T05:50:48;26.20;77.90
37560;DHT22;23398;50.928;7.084;2023-06-22T05:53:14;26.50;76.80
37560;DHT22;23398;50.928;7.084;2023-06-22T05:55:39;26.70;75.70
37560;DHT22;23398;50.928;7.084;2023-06-22T05:58:05;27.00;73.70
37560;DHT22;23398;50.928;7.084;2023-06-22T06:00:31;27.30;73.60
37560;DHT22;23398;50.928;7.084;2023-06-22T06:02:57;27.60;71.50
37560;DHT22;23398;50.928;7.084;2023-06-22T06:05:29;27.80;70.40
37560;DHT22;23398;50.928;7.084;2023-06-22T06:07:55;28.10;69.20
37560;DHT22;23398;50.928;7.084;2023-06-22T06:10:21;28.20;68.40
37560;DHT22;23398;50.928;7.084;2023-06-22T06:12:46;28.50;67.70
37560;DHT22;23398;50.928;7.084;2023-06-22T06:15:12;28.70;66.20
37560;DHT22;23398;50.928;7.084;2023-06-22T06:17:46;29.00;65.60
37560;DHT22;23398;50.928;7.084;2023-06-22T06:20:12;29.20;64.80
37560;DHT22;23398;50.928;7.084;2023-06-22T06:22:37;29.50;63.80
37560;DHT22;23398;50.928;7.084;2023-06-22T06:25:03;29.60;61.80
37560;DHT22;23398;50.928;7.084;2023-06-22T06:27:30;29.80;61.40
37560;DHT22;23398;50.928;7.084;2023-06-22T06:29:56;30.00;61.10
37560;DHT22;23398;50.928;7.084;2023-06-22T06:32:22;30.20;61.40
37560;DHT22;23398;50.928;7.084;2023-06-22T06:34:47;30.40;60.70
37560;DHT22;23398;50.928;7.084;2023-06-22T06:37:13;30.60;60.40
37560;DHT22;23398;50.928;7.084;2023-06-22T06:39:38;30.80;59.60
37560;DHT22;23398;50.928;7.084;2023-06-22T06:42:05;31.00;59.10
37560;DHT22;23398;50.928;7.084;2023-06-22T06:44:30;31.30;59.00
37560;DHT22;23398;50.928;7.084;2023-06-22T06:46:56;31.50;58.40
37560;DHT22;23398;50.928;7.084;2023-06-22T06:49:22;31.70;57.70
37560;DHT22;23398;50.928;7.084;2023-06-22T06:51:48;31.90;57.00
37560;DHT22;23398;50.928;7.084;2023-06-22T06:54:13;32.00;56.50
37560;DHT22;23398;50.928;7.084;2023-06-22T06:56:39;32.10;56.20
37560;DHT22;23398;50.928;7.084;2023-06-22T06:59:04;32.20;55.70
37560;DHT22;23398;50.928;7.084;2023-06-22T07:01:30;32.20;55.50
37560;DHT22;23398;50.928;7.084;2023-06-22T07:03:59;32.30;55.60
37560;DHT22;23398;50.928;7.084;2023-06-22T07:06:25;32.40;55.60
37560;DHT22;23398;50.928;7.084;2023-06-22T07:08:55;32.60;55.50
37560;DHT22;23398;50.928;7.084;2023-06-22T07:11:20;33.00;55.10
37560;DHT22;23398;50.928;7.084;2023-06-22T07:13:46;33.40;54.80
37560;DHT22;23398;50.928;7.084;2023-06-22T07:16:12;34.00;53.60
37560;DHT22;23398;50.928;7.084;2023-06-22T07:18:39;34.70;53.30
37560;DHT22;23398;50.928;7.084;2023-06-22T07:21:05;35.30;52.60
37560;DHT22;23398;50.928;7.084;2023-06-22T07:23:32;36.10;51.00
37560;DHT22;23398;50.928;7.084;2023-06-22T07:25:58;36.80;49.00
37560;DHT22;23398;50.928;7.084;2023-06-22T07:28:27;37.70;48.60
37560;DHT22;23398;50.928;7.084;2023-06-22T07:30:56;38.40;47.20
37560;DHT22;23398;50.928;7.084;2023-06-22T07:33:22;39.30;46.10
37560;DHT22;23398;50.928;7.084;2023-06-22T07:35:48;40.10;45.00
37560;DHT22;23398;50.928;7.084;2023-06-22T07:38:14;40.80;42.70
37560;DHT22;23398;50.928;7.084;2023-06-22T07:40:40;41.30;41.30
37560;DHT22;23398;50.928;7.084;2023-06-22T07:43:07;41.60;40.30
37560;DHT22;23398;50.928;7.084;2023-06-22T07:45:32;41.70;39.70
37560;DHT22;23398;50.928;7.084;2023-06-22T07:48:00;41.60;39.40
37560;DHT22;23398;50.928;7.084;2023-06-22T07:50:26;41.40;39.40
37560;DHT22;23398;50.928;7.084;2023-06-22T07:52:51;41.10;39.10
37560;DHT22;23398;50.928;7.084;2023-06-22T07:55:18;40.80;39.30
37560;DHT22;23398;50.928;7.084;2023-06-22T07:57:43;40.60;40.40
37560;DHT22;23398;50.928;7.084;2023-06-22T08:00:10;40.50;40.40
37560;DHT22;23398;50.928;7.084;2023-06-22T08:02:42;40.60;40.80
37560;DHT22;23398;50.928;7.084;2023-06-22T08:05:11;40.90;40.90
37560;DHT22;23398;50.928;7.084;2023-06-22T08:07:37;41.30;40.80
37560;DHT22;23398;50.928;7.084;2023-06-22T08:10:04;41.80;40.20
37560;DHT22;23398;50.928;7.084;2023-06-22T08:12:30;42.30;39.90
37560;DHT22;23398;50.928;7.084;2023-06-22T08:14:56;43.10;39.10
37560;DHT22;23398;50.928;7.084;2023-06-22T08:17:23;43.90;37.40
37560;DHT22;23398;50.928;7.084;2023-06-22T08:19:48;44.60;36.10
37560;DHT22;23398;50.928;7.084;2023-06-22T08:22:15;45.30;35.00
37560;DHT22;23398;50.928;7.084;2023-06-22T08:24:40;45.90;34.10
37560;DHT22;23398;50.928;7.084;2023-06-22T08:27:07;46.40;32.60
37560;DHT22;23398;50.928;7.084;2023-06-22T08:29:40;46.90;31.70
37560;DHT22;23398;50.928;7.084;2023-06-22T08:32:11;47.20;31.50
37560;DHT22;23398;50.928;7.084;2023-06-22T08:34:37;47.60;30.80
37560;DHT22;23398;50.928;7.084;2023-06-22T08:37:08;48.00;30.80
37560;DHT22;23398;50.928;7.084;2023-06-22T08:39:34;48.30;30.60
37560;DHT22;23398;50.928;7.084;2023-06-22T08:41:59;48.60;30.00
37560;DHT22;23398;50.928;7.084;2023-06-22T08:44:25;48.90;29.80
37560;DHT22;23398;50.928;7.084;2023-06-22T08:46:51;49.10;29.40
37560;DHT22;23398;50.928;7.084;2023-06-22T08:49:16;49.40;29.60
37560;DHT22;23398;50.928;7.084;2023-06-22T08:51:42;49.60;29.40
37560;DHT22;23398;50.928;7.084;2023-06-22T08:54:09;49.80;28.80
37560;DHT22;23398;50.928;7.084;2023-06-22T08:56:35;49.80;28.20
37560;DHT22;23398;50.928;7.084;2023-06-22T08:59:01;49.60;28.20
37560;DHT22;23398;50.928;7.084;2023-06-22T09:01:27;49.30;28.60
37560;DHT22;23398;50.928;7.084;2023-06-22T09:03:52;49.00;28.50
37560;DHT22;23398;50.928;7.084;2023-06-22T09:06:23;48.50;28.90
37560;DHT22;23398;50.928;7.084;2023-06-22T09:08:49;48.00;29.20
37560;DHT22;23398;50.928;7.084;2023-06-22T09:11:15;47.50;29.60
37560;DHT22;23398;50.928;7.084;2023-06-22T09:13:40;46.90;29.70
37560;DHT22;23398;50.928;7.084;2023-06-22T09:16:06;46.30;30.00
37560;DHT22;23398;50.928;7.084;2023-06-22T09:18:33;45.60;30.60
37560;DHT22;23398;50.928;7.084;2023-06-22T09:20:59;45.00;31.20
37560;DHT22;23398;50.928;7.084;2023-06-22T09:23:25;44.40;32.00
37560;DHT22;23398;50.928;7.084;2023-06-22T09:25:50;43.70;32.40
37560;DHT22;23398;50.928;7.084;2023-06-22T09:28:16;43.20;33.20
37560;DHT22;23398;50.928;7.084;2023-06-22T09:30:43;42.60;33.80
37560;DHT22;23398;50.928;7.084;2023-06-22T09:33:09;42.10;34.60
37560;DHT22;23398;50.928;7.084;2023-06-22T09:35:35;41.70;35.50
37560;DHT22;23398;50.928;7.084;2023-06-22T09:38:00;41.30;35.80
37560;DHT22;23398;50.928;7.084;2023-06-22T09:40:26;40.90;36.30
37560;DHT22;23398;50.928;7.084;2023-06-22T09:42:51;40.70;36.60
37560;DHT22;23398;50.928;7.084;2023-06-22T09:45:17;40.40;36.70
37560;DHT22;23398;50.928;7.084;2023-06-22T09:47:43;40.20;37.40
37560;DHT22;23398;50.928;7.084;2023-06-22T09:50:08;40.10;38.00
37560;DHT22;23398;50.928;7.084;2023-06-22T09:52:34;40.00;38.10
37560;DHT22;23398;50.928;7.084;2023-06-22T09:55:00;39.90;37.70
37560;DHT22;23398;50.928;7.084;2023-06-22T09:57:25;39.90;38.00
37560;DHT22;23398;50.928;7.084;2023-06-22T09:59:51;39.80;37.90
37560;DHT22;23398;50.928;7.084;2023-06-22T10:02:17;39.70;38.00
37560;DHT22;23398;50.928;7.084;2023-06-22T10:04:42;39.60;38.50
37560;DHT22;23398;50.928;7.084;2023-06-22T10:07:08;39.30;38.60
37560;DHT22;23398;50.928;7.084;2023-06-22T10:09:33;39.00;38.80
37560;DHT22;23398;50.928;7.084;2023-06-22T10:11:59;38.70;39.10
37560;DHT22;23398;50.928;7.084;2023-06-22T10:14:25;38.40;39.60
37560;DHT22;23398;50.928;7.084;2023-06-22T10:16:52;38.00;40.30
37560;DHT22;23398;50.928;7.084;2023-06-22T10:19:18;37.70;40.90
37560;DHT22;23398;50.928;7.084;2023-06-22T10:21:44;37.30;42.60
37560;DHT22;23398;50.928;7.084;2023-06-22T10:24:09;37.00;43.00
37560;DHT22;23398;50.928;7.084;2023-06-22T10:26:35;36.70;44.80
37560;DHT22;23398;50.928;7.084;2023-06-22T10:29:02;36.40;44.70
37560;DHT22;23398;50.928;7.084;2023-06-22T10:31:28;36.10;47.00
37560;DHT22;23398;50.928;7.084;2023-06-22T10:33:55;35.80;47.50
37560;DHT22;23398;50.928;7.084;2023-06-22T10:36:21;35.40;48.60
37560;DHT22;23398;50.928;7.084;2023-06-22T10:38:47;35.10;49.70
37560;DHT22;23398;50.928;7.084;2023-06-22T10:41:13;34.80;50.60
37560;DHT22;23398;50.928;7.084;2023-06-22T10:43:39;34.50;52.00
37560;DHT22;23398;50.928;7.084;2023-06-22T10:46:06;34.20;53.40
37560;DHT22;23398;50.928;7.084;2023-06-22T10:48:32;34.00;53.30
37560;DHT22;23398;50.928;7.084;2023-06-22T10:50:57;33.70;54.00
37560;DHT22;23398;50.928;7.084;2023-06-22T10:53:23;33.60;55.10
37560;DHT22;23398;50.928;7.084;2023-06-22T10:55:49;33.20;55.60
37560;DHT22;23398;50.928;7.084;2023-06-22T10:58:15;32.90;56.10
37560;DHT22;23398;50.928;7.084;2023-06-22T11:00:40;32.60;56.70
37560;DHT22;23398;50.928;7.084;2023-06-22T11:03:06;32.30;57.00
37560;DHT22;23398;50.928;7.084;2023-06-22T11:05:31;32.00;57.50
37560;DHT22;23398;50.928;7.084;2023-06-22T11:07:57;31.70;58.20
37560;DHT22;23398;50.928;7.084;2023-06-22T11:10:23;31.50;58.80
37560;DHT22;23398;50.928;7.084;2023-06-22T11:12:49;31.10;59.10
37560;DHT22;23398;50.928;7.084;2023-06-22T11:15:14;30.80;60.20
37560;DHT22;23398;50.928;7.084;2023-06-22T11:17:40;30.60;60.70
37560;DHT22;23398;50.928;7.084;2023-06-22T11:20:06;30.30;61.70
37560;DHT22;23398;50.928;7.084;2023-06-22T11:22:39;30.10;64.90
37560;DHT22;23398;50.928;7.084;2023-06-22T11:25:06;29.80;67.30
37560;DHT22;23398;50.928;7.084;2023-06-22T11:27:32;29.50;71.70
37560;DHT22;23398;50.928;7.084;2023-06-22T11:29:58;29.20;73.20
37560;DHT22;23398;50.928;7.084;2023-06-22T11:32:24;28.80;75.40
37560;DHT22;23398;50.928;7.084;2023-06-22T11:34:49;28.50;77.50
37560;DHT22;23398;50.928;7.084;2023-06-22T11:37:15;28.20;81.90
37560;DHT22;23398;50.928;7.084;2023-06-22T11:39:41;27.80;83.70
37560;DHT22;23398;50.928;7.084;2023-06-22T11:42:08;27.60;89.00
37560;DHT22;23398;50.928;7.084;2023-06-22T11:44:34;27.30;91.10
37560;DHT22;23398;50.928;7.084;2023-06-22T11:47:00;27.10;91.60
37560;DHT22;23398;50.928;7.084;2023-06-22T11:49:26;26.90;92.10
37560;DHT22;23398;50.928;7.084;2023-06-22T11:51:52;26.70;92.90
37560;DHT22;23398;50.928;7.084;2023-06-22T11:54:18;26.50;94.20
37560;DHT22;23398;50.928;7.084;2023-06-22T11:56:44;26.50;96.40
37560;DHT22;23398;50.928;7.084;2023-06-22T11:59:09;26.40;98.70
37560;DHT22;23398;50.928;7.084;2023-06-22T12:01:35;27.10;99.90
37560;DHT22;23398;50.928;7.084;2023-06-22T12:04:00;26.60;99.90
37560;DHT22;23398;50.928;7.084;2023-06-22T12:06:26;26.80;99.90
37560;DHT22;23398;50.928;7.084;2023-06-22T12:08:51;27.00;99.90
37560;DHT22;23398;50.928;7.084;2023-06-22T12:11:17;27.30;99.90
37560;DHT22;23398;50.928;7.084;2023-06-22T12:13:43;27.60;99.90
37560;DHT22;23398;50.928;7.084;2023-06-22T12:16:08;27.90;99.90
37560;DHT22;23398;50.928;7.084;2023-06-22T12:18:34;28.10;99.90
37560;DHT22;23398;50.928;7.084;2023-06-22T12:21:02;28.20;99.90
37560;DHT22;23398;50.928;7.084;2023-06-22T12:23:28;28.30;99.90
37560;DHT22;23398;50.928;7.084;2023-06-22T12:25:54;28.40;99.90
37560;DHT22;23398;50.928;7.084;2023-06-22T12:28:19;28.30;99.90
37560;DHT22;23398;50.928;7.084;2023-06-22T12:30:45;28.30;99.90
37560;DHT22;23398;50.928;7.084;2023-06-22T12:33:10;28.30;99.90
37560;DHT22;23398;50.928;7.084;2023-06-22T12:35:36;28.20;99.90
37560;DHT22;23398;50.928;7.084;2023-06-22T12:38:01;28.20;99.90
37560;DHT22;23398;50.928;7.084;2023-06-22T12:40:28;28.10;99.90
37560;DHT22;23398;50.928;7.084;2023-06-22T12:42:55;28.10;99.90
37560;DHT22;23398;50.928;7.084;2023-06-22T12:45:20;28.10;99.90
37560;DHT22;23398;50.928;7.084;2023-06-22T12:47:46;28.10;99.90
37560;DHT22;23398;50.928;7.084;2023-06-22T12:50:12;28.20;99.90
37560;DHT22;23398;50.928;7.084;2023-06-22T12:52:40;28.30;99.90
37560;DHT22;23398;50.928;7.084;2023-06-22T12:55:06;28.40;99.90
37560;DHT22;23398;50.928;7.084;2023-06-22T12:57:32;28.50;99.90
37560;DHT22;23398;50.928;7.084;2023-06-22T12:59:58;28.60;99.90
37560;DHT22;23398;50.928;7.084;2023-06-22T13:02:25;28.70;99.90
37560;DHT22;23398;50.928;7.084;2023-06-22T13:04:51;28.70;99.90
37560;DHT22;23398;50.928;7.084;2023-06-22T13:07:17;28.70;99.90
37560;DHT22;23398;50.928;7.084;2023-06-22T13:09:42;28.70;99.90
37560;DHT22;23398;50.928;7.084;2023-06-22T13:12:08;28.70;99.90
37560;DHT22;23398;50.928;7.084;2023-06-22T13:14:34;28.70;99.90
37560;DHT22;23398;50.928;7.084;2023-06-22T13:16:59;28.80;99.90
37560;DHT22;23398;50.928;7.084;2023-06-22T13:19:25;28.90;99.90
37560;DHT22;23398;50.928;7.084;2023-06-22T13:21:54;28.90;99.90
37560;DHT22;23398;50.928;7.084;2023-06-22T13:24:19;28.90;99.90
37560;DHT22;23398;50.928;7.084;2023-06-22T13:26:45;29.00;99.90
37560;DHT22;23398;50.928;7.084;2023-06-22T13:29:10;29.00;99.90
37560;DHT22;23398;50.928;7.084;2023-06-22T13:31:37;29.00;99.90
37560;DHT22;23398;50.928;7.084;2023-06-22T13:34:02;29.10;99.90
37560;DHT22;23398;50.928;7.084;2023-06-22T13:36:28;29.10;99.90
37560;DHT22;23398;50.928;7.084;2023-06-22T13:38:56;29.00;99.90
37560;DHT22;23398;50.928;7.084;2023-06-22T13:41:21;29.00;99.90
37560;DHT22;23398;50.928;7.084;2023-06-22T13:43:47;29.00;99.90
37560;DHT22;23398;50.928;7.084;2023-06-22T13:46:12;28.90;99.90
37560;DHT22;23398;50.928;7.084;2023-06-22T13:48:38;29.00;99.90
37560;DHT22;23398;50.928;7.084;2023-06-22T13:51:04;28.90;99.90
37560;DHT22;23398;50.928;7.084;2023-06-22T13:53:29;28.90;99.90
37560;DHT22;23398;50.928;7.084;2023-06-22T13:55:56;28.90;99.90
37560;DHT22;23398;50.928;7.084;2023-06-22T13:58:21;28.90;99.90
37560;DHT22;23398;50.928;7.084;2023-06-22T14:00:47;28.90;99.90
37560;DHT22;23398;50.928;7.084;2023-06-22T14:03:14;28.90;99.90
37560;DHT22;23398;50.928;7.084;2023-06-22T14:05:41;28.90;99.40
37560;DHT22;23398;50.928;7.084;2023-06-22T14:08:07;28.90;99.30
37560;DHT22;23398;50.928;7.084;2023-06-22T14:10:33;28.90;98.50
37560;DHT22;23398;50.928;7.084;2023-06-22T14:12:58;28.80;98.40
37560;DHT22;23398;50.928;7.084;2023-06-22T14:15:25;28.90;98.10
37560;DHT22;23398;50.928;7.084;2023-06-22T14:17:51;28.90;97.10
37560;DHT22;23398;50.928;7.084;2023-06-22T14:20:18;29.00;96.70
37560;DHT22;23398;50.928;7.084;2023-06-22T14:22:43;29.10;95.90
37560;DHT22;23398;50.928;7.084;2023-06-22T14:25:09;29.10;95.40
37560;DHT22;23398;50.928;7.084;2023-06-22T14:27:35;29.20;95.40
37560;DHT22;23398;50.928;7.084;2023-06-22T14:30:00;29.30;94.30
37560;DHT22;23398;50.928;7.084;2023-06-22T14:32:28;29.40;91.90
37560;DHT22;23398;50.928;7.084;2023-06-22T14:34:55;29.40;92.40
37560;DHT22;23398;50.928;7.084;2023-06-22T14:37:20;29.50;92.90
37560;DHT22;23398;50.928;7.084;2023-06-22T14:39:46;29.50;92.30
37560;DHT22;23398;50.928;7.084;2023-06-22T14:42:11;29.50;91.40
37560;DHT22;23398;50.928;7.084;2023-06-22T14:44:37;29.50;90.70
37560;DHT22;23398;50.928;7.084;2023-06-22T14:47:03;29.50;90.30
37560;DHT22;23398;50.928;7.084;2023-06-22T14:49:28;29.40;90.40
37560;DHT22;23398;50.928;7.084;2023-06-22T14:51:54;29.30;96.30
37560;DHT22;23398;50.928;7.084;2023-06-22T14:54:19;29.20;97.30
37560;DHT22;23398;50.928;7.084;2023-06-22T14:56:45;29.00;98.90
37560;DHT22;23398;50.928;7.084;2023-06-22T14:59:11;28.90;99.90
37560;DHT22;23398;50.928;7.084;2023-06-22T15:01:36;28.60;99.90
37560;DHT22;23398;50.928;7.084;2023-06-22T15:04:02;28.30;99.90
37560;DHT22;23398;50.928;7.084;2023-06-22T15:06:28;28.10;99.90
37560;DHT22;23398;50.928;7.084;2023-06-22T15:08:53;27.90;99.90
37560;DHT22;23398;50.928;7.084;2023-06-22T15:11:19;27.50;99.90
37560;DHT22;23398;50.928;7.084;2023-06-22T15:13:45;27.20;99.90
37560;DHT22;23398;50.928;7.084;2023-06-22T15:16:10;27.00;99.90
37560;DHT22;23398;50.928;7.084;2023-06-22T15:18:36;26.80;99.90
37560;DHT22;23398;50.928;7.084;2023-06-22T15:21:03;26.60;99.90
37560;DHT22;23398;50.928;7.084;2023-06-22T15:23:29;26.40;99.90
37560;DHT22;23398;50.928;7.084;2023-06-22T15:25:56;26.40;99.90
37560;DHT22;23398;50.928;7.084;2023-06-22T15:28:22;26.20;99.90